createdAt,value
2022-11-13T07:56:47.717Z,102827.97
2022-11-13T07:59:43.408Z,102827.13
2022-11-13T08:02:40.137Z,102836.66
2022-11-13T08:05:37.687Z,102833.06
2022-11-13T08:08:33.019Z,102832.88
2022-11-13T08:11:28.335Z,102839.09
2022-11-13T08:14:26.117Z,102849.44
2022-11-13T08:17:22.795Z,102846.69
2022-11-13T08:20:18.818Z,102842.13
2022-11-13T08:23:14.931Z,102851.84
2022-11-13T08:26:12.786Z,102852.47
2022-11-13T08:29:09.356Z,102852.38
2022-11-13T08:32:08.220Z,102853.09
2022-11-13T08:35:04.405Z,102847.53
2022-11-13T08:38:04.711Z,102852.72
2022-11-13T08:41:07.249Z,102853.44
2022-11-13T08:44:04.592Z,102842.38
2022-11-13T08:47:02.743Z,102845.66
2022-11-13T08:50:01.005Z,102836.53
2022-11-13T08:52:59.137Z,102838.09
2022-11-13T08:55:54.803Z,102838.69
2022-11-13T08:58:50.502Z,102838.44
2022-11-13T09:01:46.293Z,102842.53
2022-11-13T09:04:43.871Z,102844.13
2022-11-13T09:07:42.535Z,102841.06
2022-11-13T09:10:39.688Z,102838.41
2022-11-13T09:13:39.827Z,102837.25
2022-11-13T09:16:39.975Z,102841.50
2022-11-13T09:19:35.782Z,102840.53
2022-11-13T09:22:33.269Z,102840.50
2022-11-13T09:25:37.270Z,102845.75
2022-11-13T09:28:35.092Z,102833.34
2022-11-13T09:31:30.612Z,102836.84
2022-11-13T09:34:29.087Z,102845.69
2022-11-13T09:37:25.039Z,102839.34
2022-11-13T09:40:33.858Z,102841.16
2022-11-13T09:43:38.602Z,102844.59
2022-11-13T09:46:41.938Z,102842.72
2022-11-13T09:49:41.810Z,102829.53
2022-11-13T09:52:41.741Z,102824.19
2022-11-13T09:56:00.894Z,102825.06
2022-11-13T09:59:09.541Z,102828.94
2022-11-13T10:02:20.409Z,102825.22
2022-11-13T10:05:26.478Z,102818.94
2022-11-13T10:08:29.831Z,102813.50
2022-11-13T10:11:40.583Z,102822.19
2022-11-13T10:14:43.189Z,102823.06
2022-11-13T10:17:43.116Z,102806.06
2022-11-13T10:20:44.067Z,102808.56
2022-11-13T10:23:42.051Z,102801.31
2022-11-13T10:26:40.236Z,102798.53
2022-11-13T10:29:37.009Z,102803.03
2022-11-13T10:32:36.271Z,102804.59
2022-11-13T10:35:52.093Z,102802.50
2022-11-13T10:38:57.050Z,102789.19
2022-11-13T10:41:58.029Z,102783.00
2022-11-13T10:44:59.523Z,102782.06
2022-11-13T10:48:04.147Z,102781.13
2022-11-13T10:51:03.281Z,102785.59
2022-11-13T10:54:00.592Z,102781.28
2022-11-13T10:57:07.641Z,102786.25
2022-11-13T11:00:04.792Z,102785.31
2022-11-13T11:03:00.194Z,102779.00
2022-11-13T11:06:02.083Z,102780.56
2022-11-13T11:08:57.301Z,102777.28
2022-11-13T11:12:19.776Z,102778.06
2022-11-13T11:15:25.741Z,102766.66
2022-11-13T11:18:32.101Z,102771.94
2022-11-13T11:21:36.761Z,102770.22
2022-11-13T11:24:39.842Z,102772.13
2022-11-13T11:27:41.501Z,102779.19
2022-11-13T11:30:47.531Z,102779.19
2022-11-13T11:33:54.322Z,102779.38
2022-11-13T11:37:02.518Z,102773.09
2022-11-13T11:40:05.272Z,102760.94
2022-11-13T11:43:14.666Z,102760.94
2022-11-13T11:46:14.776Z,102763.69
2022-11-13T11:49:13.328Z,102763.91
2022-11-13T11:52:40.097Z,102767.34
2022-11-13T11:56:04.898Z,102767.50
2022-11-13T11:59:26.279Z,102762.34
2022-11-13T12:03:02.861Z,102766.75
2022-11-13T12:06:10.887Z,102765.13
2022-11-13T12:09:21.098Z,102765.13
2022-11-13T12:12:46.851Z,102763.19
2022-11-13T12:15:55.220Z,102766.91
2022-11-13T12:18:59.894Z,102766.84
2022-11-13T12:22:07.477Z,102772.00
2022-11-13T12:25:21.060Z,102778.19
2022-11-13T12:28:29.479Z,102780.13
2022-11-13T12:31:47.580Z,102773.72
2022-11-13T12:34:51.380Z,102774.75
2022-11-13T12:37:55.003Z,102769.41
2022-11-13T12:40:57.319Z,102766.66
2022-11-13T12:44:25.228Z,102755.88
2022-11-13T12:47:24.412Z,102756.81
2022-11-13T12:50:32.803Z,102753.38
2022-11-13T12:53:31.881Z,102744.50
2022-11-13T12:56:36.785Z,102742.88
2022-11-13T12:59:37.885Z,102745.53
2022-11-13T13:03:08.555Z,102752.69
2022-11-13T13:06:31.462Z,102747.44
2022-11-13T13:09:41.956Z,102733.22
2022-11-13T13:12:52.941Z,102735.13
2022-11-13T13:15:58.079Z,102736.94
2022-11-13T13:18:56.848Z,102725.31
2022-11-13T13:21:51.671Z,102739.59
2022-11-13T13:24:47.042Z,102721.88
2022-11-13T13:27:43.367Z,102711.19
2022-11-13T13:30:55.665Z,102699.63
2022-11-13T13:34:06.968Z,102698.75
2022-11-13T13:37:17.088Z,102694.53
2022-11-13T13:40:32.445Z,102686.50
2022-11-13T13:43:49.199Z,102686.50
2022-11-13T13:46:46.009Z,102664.38
2022-11-13T13:49:44.633Z,102667.03
2022-11-13T13:52:41.119Z,102677.91
2022-11-13T13:55:41.582Z,102669.78
2022-11-13T13:58:40.464Z,102665.50
2022-11-13T14:01:38.927Z,102661.13
2022-11-13T14:04:46.269Z,102658.50
2022-11-13T14:07:50.172Z,102658.63
2022-11-13T14:10:48.050Z,102650.03
2022-11-13T14:13:49.073Z,102641.25
2022-11-13T14:16:59.082Z,102650.78
2022-11-13T14:20:01.881Z,102659.00
2022-11-13T14:23:04.594Z,102648.31
2022-11-13T14:26:02.380Z,102655.53
2022-11-13T14:29:03.243Z,102653.84
2022-11-13T14:32:05.771Z,102651.44
2022-11-13T14:35:10.063Z,102658.41
2022-11-13T14:38:22.442Z,102670.91
2022-11-13T14:41:38.733Z,102660.56
2022-11-13T14:44:38.959Z,102665.09
2022-11-13T14:47:38.759Z,102666.13
2022-11-13T14:50:37.591Z,102664.50
2022-11-13T14:53:39.470Z,102674.38
2022-11-13T14:56:38.493Z,102667.34
2022-11-13T14:59:34.490Z,102664.66
2022-11-13T15:02:31.200Z,102683.34
2022-11-13T15:05:27.214Z,102678.03
2022-11-13T15:08:23.430Z,102678.88
2022-11-13T15:11:24.629Z,102683.34
2022-11-13T15:14:23.236Z,102680.69
2022-11-13T15:17:23.034Z,102673.81
2022-11-13T15:20:28.281Z,102678.38
2022-11-13T15:23:27.358Z,102683.72
2022-11-13T15:26:26.841Z,102684.56
2022-11-13T15:29:23.009Z,102682.94
2022-11-13T15:32:19.334Z,102682.00
2022-11-13T15:35:20.741Z,102684.69
2022-11-13T15:38:16.987Z,102684.75
2022-11-13T15:41:17.236Z,102685.78
2022-11-13T15:44:19.008Z,102685.00
2022-11-13T15:47:29.949Z,102683.38
2022-11-13T15:50:26.090Z,102680.91
2022-11-13T15:53:21.435Z,102681.84
2022-11-13T15:56:17.604Z,102689.97
2022-11-13T15:59:18.000Z,102694.44
2022-11-13T16:02:14.227Z,102684.78
2022-11-13T16:05:11.222Z,102690.13
2022-11-13T16:08:17.129Z,102690.13
2022-11-13T16:11:17.735Z,102688.41
2022-11-13T16:14:19.666Z,102689.44
2022-11-13T16:17:22.830Z,102698.41
2022-11-13T16:20:20.679Z,102704.63
2022-11-13T16:23:21.280Z,102702.88
2022-11-13T16:26:19.848Z,102703.75
2022-11-13T16:29:22.905Z,102697.53
2022-11-13T16:32:20.111Z,102698.47
2022-11-13T16:35:20.089Z,102695.81
2022-11-13T16:38:16.965Z,102703.03
2022-11-13T16:41:15.211Z,102710.28
2022-11-13T16:44:11.262Z,102699.78
2022-11-13T16:47:11.331Z,102694.38
2022-11-13T16:50:07.750Z,102699.78
2022-11-13T16:53:03.992Z,102699.00
2022-11-13T16:56:00.286Z,102701.69
2022-11-13T16:58:56.389Z,102692.91
2022-11-13T17:01:57.158Z,102695.56
2022-11-13T17:04:58.800Z,102695.47
2022-11-13T17:08:02.311Z,102696.34
2022-11-13T17:11:01.387Z,102696.44
2022-11-13T17:13:58.782Z,102689.31
2022-11-13T17:16:54.272Z,102690.25
2022-11-13T17:19:50.718Z,102691.38
2022-11-13T17:22:51.471Z,102686.69
2022-11-13T17:25:48.284Z,102689.47
2022-11-13T17:28:43.830Z,102686.81
2022-11-13T17:31:39.878Z,102684.13
2022-11-13T17:34:37.246Z,102684.03
2022-11-13T17:37:33.535Z,102677.00
2022-11-13T17:40:32.469Z,102681.28
2022-11-13T17:43:28.354Z,102685.84
2022-11-13T17:46:24.656Z,102684.13
2022-11-13T17:49:21.418Z,102677.94
2022-11-13T17:52:18.022Z,102678.03
2022-11-13T17:55:14.394Z,102686.03
2022-11-13T17:58:13.402Z,102687.72
2022-11-13T18:01:15.524Z,102684.31
2022-11-13T18:04:12.759Z,102686.88
2022-11-13T18:07:10.655Z,102683.38
2022-11-13T18:10:16.931Z,102686.03
2022-11-13T18:13:17.568Z,102692.03
2022-11-13T18:16:20.468Z,102689.38
2022-11-13T18:19:17.887Z,102685.06
2022-11-13T18:22:14.369Z,102696.72
2022-11-13T18:25:12.390Z,102696.72
2022-11-13T18:28:08.719Z,102707.72
2022-11-13T18:31:10.867Z,102698.59
2022-11-13T18:34:10.659Z,102695.13
2022-11-13T18:37:07.532Z,102690.78
2022-11-13T18:40:11.795Z,102688.88
2022-11-13T18:43:08.453Z,102690.78
2022-11-13T18:46:10.711Z,102692.66
2022-11-13T18:49:08.094Z,102694.53
2022-11-13T18:52:07.304Z,102697.19
2022-11-13T18:55:03.614Z,102684.81
2022-11-13T18:58:01.785Z,102689.41
2022-11-13T19:00:58.696Z,102683.28
2022-11-13T19:07:22.374Z,102677.25
2022-11-13T19:10:18.682Z,102680.03
2022-11-13T19:13:14.242Z,102688.97
2022-11-13T19:16:12.282Z,102688.97
2022-11-13T19:19:18.715Z,102687.41
2022-11-13T19:22:15.086Z,102691.38
2022-11-13T19:25:13.986Z,102693.06
2022-11-13T19:28:11.684Z,102699.38
2022-11-13T19:31:12.052Z,102694.97
2022-11-13T19:34:11.996Z,102695.13
2022-11-13T19:37:19.226Z,102684.66
2022-11-13T19:40:19.880Z,102684.66
2022-11-13T19:43:16.439Z,102689.25
2022-11-13T19:46:14.110Z,102686.69
2022-11-13T19:49:13.164Z,102690.28
2022-11-13T19:52:10.008Z,102687.00
2022-11-13T19:55:08.863Z,102692.34
2022-11-13T19:58:07.127Z,102679.97
2022-11-13T20:01:11.189Z,102681.84
2022-11-13T20:04:09.125Z,102688.91
2022-11-13T20:07:08.266Z,102680.13
2022-11-13T20:10:03.915Z,102689.06
2022-11-13T20:13:00.439Z,102681.25
2022-11-13T20:15:59.097Z,102674.97
2022-11-13T20:18:59.727Z,102672.53
2022-11-13T20:21:55.929Z,102679.06
2022-11-13T20:24:55.497Z,102672.81
2022-11-13T20:27:51.747Z,102674.69
2022-11-13T20:30:49.378Z,102676.41
2022-11-13T20:33:45.887Z,102668.41
2022-11-13T20:36:42.640Z,102665.84
2022-11-13T20:39:39.566Z,102668.66
2022-11-13T20:42:39.548Z,102667.00
2022-11-13T20:45:35.497Z,102660.91
2022-11-13T20:48:32.042Z,102657.72
2022-11-13T20:51:33.009Z,102657.63
2022-11-13T20:54:29.510Z,102657.78
2022-11-13T20:57:28.898Z,102656.84
2022-11-13T21:00:28.066Z,102650.50
2022-11-13T21:03:23.351Z,102649.63
